createdAt,value
2022-10-11T00:02:00.658Z,9.38
2022-10-11T00:04:27.486Z,10.32
2022-10-11T00:06:54.866Z,9.40
2022-10-11T00:09:21.818Z,9.30
2022-10-11T00:11:49.496Z,9.05
2022-10-11T00:14:16.748Z,8.90
2022-10-11T00:16:44.620Z,10.35
2022-10-11T00:19:11.877Z,10.00
2022-10-11T00:21:42.116Z,10.80
2022-10-11T00:24:10.688Z,9.57
2022-10-11T00:26:37.319Z,9.60
2022-10-11T00:29:04.312Z,9.82
2022-10-11T00:31:35.528Z,9.60
2022-10-11T00:34:05.163Z,9.32
2022-10-11T00:36:32.183Z,9.63
2022-10-11T00:38:59.470Z,9.18
2022-10-11T00:41:26.363Z,9.57
2022-10-11T00:44:17.134Z,8.25
2022-10-11T00:46:54.990Z,8.85
2022-10-11T00:49:43.796Z,8.98
2022-10-11T00:52:34.002Z,9.23
2022-10-11T00:55:08.718Z,9.20
2022-10-11T00:57:39.543Z,9.57
2022-10-11T01:02:35.867Z,9.35
2022-10-11T01:05:28.162Z,9.23
2022-10-11T01:07:53.662Z,10.30
2022-10-11T01:10:22.375Z,9.73
2022-10-11T01:13:20.169Z,10.15
2022-10-11T01:16:06.255Z,9.77
2022-10-11T01:18:58.886Z,9.40
2022-10-11T01:21:53.723Z,9.55
2022-10-11T01:24:52.351Z,9.52
2022-10-11T01:27:39.772Z,9.70
2022-10-11T01:30:26.486Z,10.30
2022-10-11T01:33:00.736Z,9.43
2022-10-11T01:35:35.701Z,10.23
2022-10-11T01:38:11.463Z,10.07
2022-10-11T01:40:46.275Z,9.88
2022-10-11T01:43:15.542Z,9.90
2022-10-11T01:45:44.922Z,9.45
2022-10-11T01:48:14.180Z,9.80
2022-10-11T01:50:57.224Z,10.52
2022-10-11T01:54:04.573Z,9.73
2022-10-11T01:56:49.880Z,9.40
2022-10-11T01:59:22.888Z,8.88
2022-10-11T02:02:02.878Z,9.18
2022-10-11T02:04:48.207Z,9.63
2022-10-11T02:07:33.638Z,9.48
2022-10-11T02:10:32.848Z,9.40
2022-10-11T02:13:26.785Z,8.75
2022-10-11T02:15:58.111Z,9.57
2022-10-11T02:18:29.122Z,9.45
2022-10-11T02:20:59.473Z,9.88
2022-10-11T02:23:30.173Z,10.40
2022-10-11T02:28:30.306Z,9.13
2022-10-11T02:30:59.441Z,10.07
2022-10-11T02:33:42.655Z,10.35
2022-10-11T02:36:25.625Z,9.70
2022-10-11T02:38:58.367Z,9.57
2022-10-11T02:41:36.659Z,10.68
2022-10-11T02:44:09.463Z,10.30
2022-10-11T02:46:38.038Z,10.57
2022-10-11T02:49:05.294Z,11.13
2022-10-11T02:51:32.890Z,10.70
2022-10-11T02:54:00.353Z,10.07
2022-10-11T02:56:29.862Z,10.10
2022-10-11T02:58:56.692Z,9.93
2022-10-11T03:01:23.644Z,10.00
2022-10-11T03:03:51.363Z,9.73
2022-10-11T03:06:18.066Z,10.27
2022-10-11T03:08:44.918Z,9.95
2022-10-11T03:11:11.833Z,10.02
2022-10-11T03:13:38.812Z,10.23
2022-10-11T03:16:05.797Z,9.50
2022-10-11T03:18:32.570Z,9.68
2022-10-11T03:20:59.259Z,10.02
2022-10-11T03:23:26.009Z,9.27
2022-10-11T03:25:52.805Z,9.75
2022-10-11T03:28:22.542Z,10.90
2022-10-11T03:30:50.240Z,10.57
2022-10-11T03:33:20.491Z,10.20
2022-10-11T03:35:49.050Z,11.10
2022-10-11T03:38:22.358Z,11.80
2022-10-11T03:40:49.261Z,11.15
2022-10-11T03:43:16.477Z,11.23
2022-10-11T03:45:43.455Z,11.65
2022-10-11T03:48:11.241Z,10.93
2022-10-11T03:50:38.734Z,10.95
2022-10-11T03:53:06.998Z,11.65
2022-10-11T03:55:34.104Z,10.68
2022-10-11T03:58:01.404Z,11.18
2022-10-11T04:00:28.179Z,11.40
2022-10-11T04:02:55.097Z,10.10
2022-10-11T04:05:22.458Z,11.15
2022-10-11T04:07:51.725Z,11.65
2022-10-11T04:10:21.644Z,10.75
2022-10-11T04:12:48.466Z,9.63
2022-10-11T04:15:17.403Z,10.98
2022-10-11T04:17:44.366Z,10.98
2022-10-11T04:20:11.350Z,11.15
2022-10-11T04:22:38.671Z,10.95
2022-10-11T04:25:07.336Z,11.23
2022-10-11T04:27:34.997Z,10.95
2022-10-11T04:30:02.399Z,11.20
2022-10-11T04:32:29.319Z,11.07
2022-10-11T04:34:56.470Z,10.55
2022-10-11T04:37:23.334Z,10.50
2022-10-11T04:39:53.437Z,9.38
2022-10-11T04:42:20.747Z,10.07
2022-10-11T04:44:47.768Z,10.48
2022-10-11T04:47:16.288Z,10.32
2022-10-11T04:49:43.450Z,9.98
2022-10-11T04:52:10.681Z,10.60
2022-10-11T04:54:37.539Z,10.48
2022-10-11T04:57:06.730Z,9.70
2022-10-11T04:59:34.174Z,9.75
2022-10-11T05:02:00.848Z,10.05
2022-10-11T05:04:27.522Z,10.07
2022-10-11T05:06:54.336Z,9.95
2022-10-11T05:09:21.790Z,9.63
2022-10-11T05:11:48.312Z,10.15
2022-10-11T05:14:14.832Z,9.18
2022-10-11T05:16:41.328Z,9.85
2022-10-11T05:19:10.754Z,9.20
2022-10-11T05:21:37.153Z,9.35
2022-10-11T05:24:03.896Z,9.55
2022-10-11T05:26:30.808Z,10.65
2022-10-11T05:28:57.479Z,11.02
2022-10-11T05:31:24.741Z,12.82
2022-10-11T05:33:51.540Z,10.88
2022-10-11T05:36:18.199Z,11.80
2022-10-11T05:38:45.196Z,10.88
2022-10-11T05:41:14.294Z,11.15
2022-10-11T05:43:40.948Z,11.23
2022-10-11T05:46:08.166Z,11.57
2022-10-11T05:48:34.852Z,14.75
2022-10-11T05:51:03.684Z,11.25
2022-10-11T05:53:31.290Z,10.85
2022-10-11T05:55:58.060Z,11.65
2022-10-11T05:58:25.107Z,11.68
2022-10-11T06:00:51.558Z,11.82
2022-10-11T06:03:20.984Z,11.30
2022-10-11T06:05:47.749Z,12.88
2022-10-11T06:08:14.973Z,13.05
2022-10-11T06:10:41.736Z,12.98
2022-10-11T06:13:09.348Z,12.15
2022-10-11T06:15:39.140Z,11.88
2022-10-11T06:18:05.650Z,11.82
2022-10-11T06:20:32.198Z,11.02
2022-10-11T06:22:59.052Z,11.48
2022-10-11T06:25:25.589Z,11.57
2022-10-11T06:27:52.105Z,11.57
2022-10-11T06:30:18.689Z,12.05
2022-10-11T06:32:45.292Z,11.68
2022-10-11T06:35:11.964Z,10.50
2022-10-11T06:37:38.469Z,11.73
2022-10-11T06:40:05.370Z,10.75
2022-10-11T06:42:31.969Z,10.80
2022-10-11T06:44:58.580Z,12.25
2022-10-11T06:47:25.045Z,10.80
2022-10-11T06:49:51.531Z,12.32
2022-10-11T06:52:18.016Z,10.18
2022-10-11T06:54:45.588Z,14.57
2022-10-11T06:57:12.570Z,11.95
2022-10-11T06:59:39.058Z,10.95
2022-10-11T07:02:05.617Z,10.30
2022-10-11T07:04:33.748Z,10.18
2022-10-11T07:07:00.372Z,11.25
2022-10-11T07:09:26.745Z,10.05
2022-10-11T07:11:53.252Z,11.27
2022-10-11T07:14:21.724Z,11.13
2022-10-11T07:16:48.281Z,11.93
2022-10-11T07:19:14.930Z,11.02
2022-10-11T07:21:41.439Z,11.55
2022-10-11T07:24:08.063Z,12.05
2022-10-11T07:26:38.692Z,10.63
2022-10-11T07:29:07.905Z,12.77
2022-10-11T07:32:30.195Z,14.20
2022-10-11T07:34:56.864Z,10.43
2022-10-11T07:37:23.368Z,10.52
2022-10-11T07:39:49.850Z,10.90
2022-10-11T07:42:16.290Z,10.20
2022-10-11T07:44:42.775Z,9.43
2022-10-11T07:47:11.489Z,9.13
2022-10-11T07:49:38.112Z,9.43
2022-10-11T07:52:04.829Z,9.05
2022-10-11T07:54:32.827Z,9.95
2022-10-11T07:56:59.620Z,9.10
2022-10-11T07:59:26.315Z,10.48
2022-10-11T08:01:53.020Z,8.88
2022-10-11T08:04:21.265Z,8.73
2022-10-11T08:06:51.079Z,9.23
2022-10-11T08:09:19.794Z,9.07
2022-10-11T08:11:46.220Z,9.00
2022-10-11T08:14:12.758Z,8.75
2022-10-11T08:16:39.423Z,8.40
2022-10-11T08:19:06.913Z,8.90
2022-10-11T08:21:33.848Z,8.48
2022-10-11T08:24:02.874Z,8.82
2022-10-11T08:26:32.928Z,7.65
2022-10-11T08:29:03.254Z,8.38
2022-10-11T08:31:30.003Z,9.23
2022-10-11T08:33:57.358Z,7.50
2022-10-11T08:36:24.005Z,7.00
2022-10-11T08:38:50.686Z,7.32
2022-10-11T08:41:31.624Z,7.22
2022-10-11T08:43:58.171Z,6.65
2022-10-11T08:46:30.983Z,6.57
2022-10-11T08:48:57.924Z,6.82
2022-10-11T08:51:32.103Z,7.15
2022-10-11T08:54:44.661Z,7.07
2022-10-11T08:57:16.269Z,6.68
2022-10-11T09:00:01.561Z,6.97
2022-10-11T09:03:08.543Z,7.00
2022-10-11T09:05:39.789Z,6.95
2022-10-11T09:08:29.760Z,6.60
2022-10-11T09:11:14.326Z,6.65
2022-10-11T09:14:07.617Z,7.30
2022-10-11T09:16:48.019Z,6.80
2022-10-11T09:19:41.882Z,6.30
2022-10-11T09:22:20.556Z,7.43
2022-10-11T09:25:15.322Z,7.50
2022-10-11T09:28:08.798Z,7.53
2022-10-11T09:30:39.696Z,7.95
2022-10-11T09:33:23.165Z,7.47
2022-10-11T09:35:52.810Z,7.32
2022-10-11T09:38:25.353Z,7.10
2022-10-11T09:41:05.765Z,7.53
2022-10-11T09:43:32.567Z,6.88
2022-10-11T09:45:59.191Z,7.20
2022-10-11T09:48:38.740Z,7.10
2022-10-11T09:51:11.614Z,6.75
2022-10-11T09:53:54.971Z,7.13
2022-10-11T09:56:24.125Z,7.55
2022-10-11T09:59:29.583Z,8.13
2022-10-11T10:02:15.009Z,7.78
2022-10-11T10:04:53.845Z,7.53
2022-10-11T10:07:21.645Z,7.78
2022-10-11T10:09:49.656Z,7.68
2022-10-11T10:12:22.936Z,7.95
2022-10-11T10:15:03.927Z,7.63
2022-10-11T10:17:31.272Z,7.25
2022-10-11T10:20:00.496Z,7.57
2022-10-11T10:22:33.627Z,7.60
2022-10-11T10:25:02.947Z,8.30
2022-10-11T10:27:31.036Z,9.07
2022-10-11T10:30:02.535Z,7.45
2022-10-11T10:32:36.874Z,7.45
2022-10-11T10:35:35.601Z,7.50
2022-10-11T10:38:24.104Z,7.10
2022-10-11T10:40:56.598Z,7.45
2022-10-11T10:43:26.641Z,7.93
2022-10-11T10:46:26.617Z,7.70
2022-10-11T10:49:52.571Z,7.85
2022-10-11T10:52:34.438Z,7.07
2022-10-11T10:55:14.016Z,8.15
2022-10-11T10:57:57.888Z,7.78
2022-10-11T11:00:25.009Z,7.05
2022-10-11T11:03:11.315Z,7.65
2022-10-11T11:05:57.575Z,6.70
2022-10-11T11:08:35.750Z,7.03
2022-10-11T11:11:26.691Z,6.63
2022-10-11T11:14:27.931Z,7.22
2022-10-11T11:17:06.217Z,7.35
2022-10-11T11:20:01.235Z,7.35
2022-10-11T11:22:57.923Z,6.93
2022-10-11T11:25:40.319Z,7.25
2022-10-11T11:28:35.265Z,7.38
2022-10-11T11:31:22.036Z,7.82
2022-10-11T11:34:29.105Z,7.30
2022-10-11T11:37:00.618Z,7.32
2022-10-11T11:39:35.746Z,8.50
2022-10-11T11:42:15.238Z,7.53
2022-10-11T11:44:46.774Z,7.05
2022-10-11T11:47:25.858Z,7.18
2022-10-11T11:50:07.447Z,7.72
2022-10-11T11:52:37.731Z,7.18
2022-10-11T11:55:36.796Z,7.30
2022-10-11T11:58:34.310Z,9.60
2022-10-11T12:01:31.479Z,7.82
2022-10-11T12:04:32.500Z,7.10
2022-10-11T12:07:17.752Z,6.43
2022-10-11T12:09:50.796Z,6.50
2022-10-11T12:12:36.621Z,6.38
2022-10-11T12:15:09.299Z,6.57
2022-10-11T12:18:13.819Z,6.40
2022-10-11T12:20:41.956Z,7.00
2022-10-11T12:23:30.442Z,6.63
2022-10-11T12:26:28.254Z,6.95
2022-10-11T12:29:46.194Z,6.95
2022-10-11T12:32:28.282Z,6.55
2022-10-11T12:35:33.413Z,6.90
2022-10-11T12:38:17.016Z,6.82
2022-10-11T12:40:47.140Z,6.70
2022-10-11T12:43:19.760Z,6.35
2022-10-11T12:45:48.069Z,6.35
2022-10-11T12:48:26.419Z,5.85
2022-10-11T12:51:20.763Z,6.00
2022-10-11T12:54:36.846Z,6.18
2022-10-11T12:57:28.562Z,6.05
2022-10-11T13:00:10.000Z,5.97
2022-10-11T13:02:42.646Z,6.22
2022-10-11T13:05:35.961Z,5.88
2022-10-11T13:08:05.481Z,6.68
2022-10-11T13:10:43.758Z,5.95
2022-10-11T13:13:21.444Z,6.10
2022-10-11T13:15:48.448Z,6.07
2022-10-11T13:18:16.854Z,6.30
2022-10-11T13:20:43.955Z,6.00
2022-10-11T13:23:39.773Z,6.28
2022-10-11T13:26:06.917Z,6.57
2022-10-11T13:28:36.639Z,7.30
2022-10-11T13:31:04.555Z,6.13
2022-10-11T13:33:34.491Z,6.35
2022-10-11T13:36:05.322Z,6.47
2022-10-11T13:38:35.657Z,6.10
2022-10-11T13:41:08.658Z,6.30
2022-10-11T13:43:36.677Z,6.07
2022-10-11T13:46:06.763Z,6.93
2022-10-11T13:48:41.523Z,6.63
2022-10-11T13:51:27.653Z,6.40
2022-10-11T13:54:05.631Z,6.55
2022-10-11T13:56:37.797Z,6.70
2022-10-11T13:59:07.811Z,6.78
2022-10-11T14:01:44.034Z,6.30
2022-10-11T14:04:12.768Z,6.22
2022-10-11T14:06:45.301Z,7.95
2022-10-11T14:09:20.196Z,5.82
2022-10-11T14:11:47.319Z,5.75
2022-10-11T14:14:40.480Z,6.30
2022-10-11T14:17:16.985Z,7.22
2022-10-11T14:19:45.997Z,6.28
2022-10-11T14:22:18.119Z,6.70
2022-10-11T14:24:48.437Z,6.47
2022-10-11T14:27:19.310Z,5.95
2022-10-11T14:30:00.543Z,6.60
2022-10-11T14:32:34.764Z,6.80
2022-10-11T14:35:01.397Z,9.38
2022-10-11T14:37:28.019Z,6.47
2022-10-11T14:39:54.643Z,6.07
2022-10-11T14:42:21.238Z,7.50
2022-10-11T14:44:47.764Z,6.38
2022-10-11T14:47:17.374Z,6.00
2022-10-11T14:49:44.296Z,7.38
2022-10-11T14:52:13.074Z,6.13
2022-10-11T14:54:40.030Z,6.40
2022-10-11T14:57:06.578Z,9.05
2022-10-11T14:59:37.813Z,6.40
2022-10-11T15:02:07.800Z,7.25
2022-10-11T15:04:34.574Z,6.65
2022-10-11T15:07:01.334Z,7.32
2022-10-11T15:09:29.243Z,7.25
2022-10-11T15:11:56.901Z,7.25
2022-10-11T15:14:24.125Z,6.70
2022-10-11T15:16:50.757Z,6.47
2022-10-11T15:19:22.587Z,6.47
2022-10-11T15:21:49.510Z,6.75
2022-10-11T15:24:19.821Z,6.47
2022-10-11T15:26:47.309Z,6.05
2022-10-11T15:29:14.664Z,6.07
2022-10-11T15:31:41.365Z,8.23
2022-10-11T15:34:07.887Z,9.85
2022-10-11T15:36:34.662Z,6.47
2022-10-11T15:39:01.897Z,6.15
2022-10-11T15:41:28.388Z,6.22
2022-10-11T15:43:54.826Z,6.22
2022-10-11T15:46:22.545Z,6.05
2022-10-11T15:48:50.239Z,5.38
2022-10-11T15:51:17.225Z,5.47
2022-10-11T15:53:44.108Z,5.72
2022-10-11T15:56:15.292Z,5.50
2022-10-11T15:58:42.657Z,6.47
2022-10-11T16:01:18.117Z,6.20
2022-10-11T16:03:49.101Z,7.55
2022-10-11T16:06:17.112Z,5.82
2022-10-11T16:08:44.958Z,5.90
2022-10-11T16:11:12.525Z,16.33
2022-10-11T16:13:39.337Z,7.25
2022-10-11T16:16:08.271Z,5.90
2022-10-11T16:18:36.152Z,5.75
2022-10-11T16:21:08.643Z,5.97
2022-10-11T16:23:36.387Z,5.70
2022-10-11T16:26:06.968Z,5.70
2022-10-11T16:28:34.314Z,5.75
2022-10-11T16:31:06.740Z,5.45
2022-10-11T16:33:33.537Z,6.15
2022-10-11T16:36:19.999Z,5.55
2022-10-11T16:38:46.477Z,6.35
2022-10-11T16:41:13.022Z,7.38
2022-10-11T16:43:40.128Z,7.28
2022-10-11T16:46:07.088Z,6.40
2022-10-11T16:48:33.972Z,7.35
2022-10-11T16:51:07.916Z,6.65
2022-10-11T16:53:38.019Z,7.45
2022-10-11T16:56:09.793Z,10.88
2022-10-11T16:58:36.848Z,6.32
2022-10-11T17:01:08.743Z,6.97
2022-10-11T17:03:35.394Z,10.68
2022-10-11T17:06:02.209Z,6.82
2022-10-11T17:08:29.164Z,7.25
2022-10-11T17:10:57.692Z,7.40
2022-10-11T17:13:24.697Z,7.50
2022-10-11T17:15:51.177Z,6.97
2022-10-11T17:18:17.842Z,7.32
2022-10-11T17:20:44.567Z,7.60
2022-10-11T17:23:11.414Z,7.32
2022-10-11T17:25:43.095Z,6.85
2022-10-11T17:28:09.761Z,7.25
2022-10-11T17:30:37.773Z,6.90
2022-10-11T17:33:04.339Z,8.20
2022-10-11T17:35:32.344Z,10.43
2022-10-11T17:38:05.004Z,7.35
2022-10-11T17:40:33.976Z,7.18
2022-10-11T17:43:00.718Z,7.40
2022-10-11T17:45:27.308Z,7.05
2022-10-11T17:47:53.853Z,9.80
2022-10-11T17:50:20.389Z,8.07
2022-10-11T17:52:47.140Z,9.13
2022-10-11T17:55:13.690Z,7.40
2022-10-11T17:57:40.191Z,7.03
2022-10-11T18:00:07.411Z,8.65
2022-10-11T18:02:33.861Z,8.38
2022-10-11T18:05:00.291Z,6.75
2022-10-11T18:07:26.891Z,7.20
2022-10-11T18:09:54.367Z,7.10
2022-10-11T18:12:20.960Z,7.32
2022-10-11T18:14:47.674Z,7.70
2022-10-11T18:17:18.263Z,6.70
2022-10-11T18:19:44.927Z,8.15
2022-10-11T18:22:11.377Z,7.10
2022-10-11T18:24:39.086Z,7.43
2022-10-11T18:27:05.858Z,7.22
2022-10-11T18:29:32.479Z,9.13
2022-10-11T18:31:59.013Z,7.15
2022-10-11T18:34:25.759Z,7.40
2022-10-11T18:36:52.281Z,7.47
2022-10-11T18:39:20.826Z,7.40
2022-10-11T18:41:47.370Z,8.48
2022-10-11T18:44:15.493Z,8.13
2022-10-11T18:46:43.019Z,6.88
2022-10-11T18:49:09.922Z,7.53
2022-10-11T18:51:39.084Z,7.68
2022-10-11T18:54:07.453Z,7.88
2022-10-11T18:56:35.586Z,7.60
2022-10-11T18:59:02.106Z,8.02
2022-10-11T19:01:31.721Z,8.10
2022-10-11T19:04:00.647Z,9.23
2022-10-11T19:06:33.253Z,8.20
2022-10-11T19:09:04.184Z,9.77
2022-10-11T19:11:31.317Z,8.85
2022-10-11T19:14:00.588Z,7.68
2022-10-11T19:16:32.482Z,9.02
2022-10-11T19:19:01.895Z,8.23
2022-10-11T19:21:29.418Z,7.80
2022-10-11T19:23:57.143Z,8.40
2022-10-11T19:26:35.859Z,9.57
2022-10-11T19:29:03.977Z,9.40
2022-10-11T19:31:32.303Z,8.85
2022-10-11T19:33:59.534Z,7.78
2022-10-11T19:36:26.813Z,8.77
2022-10-11T19:38:56.917Z,9.15
2022-10-11T19:41:25.227Z,8.35
2022-10-11T19:43:52.489Z,13.18
2022-10-11T19:46:44.595Z,8.52
2022-10-11T19:49:08.438Z,8.55
2022-10-11T19:51:35.334Z,8.93
2022-10-11T19:54:04.346Z,8.82
2022-10-11T19:56:32.808Z,9.43
2022-10-11T19:59:00.860Z,10.82
2022-10-11T20:01:30.320Z,8.50
2022-10-11T20:04:03.673Z,12.43
2022-10-11T20:06:37.235Z,9.07
2022-10-11T20:09:28.000Z,10.35
2022-10-11T20:11:51.537Z,8.50
2022-10-11T20:14:20.095Z,8.07
2022-10-11T20:16:50.042Z,8.80
2022-10-11T20:19:16.717Z,8.73
2022-10-11T20:21:44.011Z,7.97
2022-10-11T20:24:10.788Z,13.07
2022-10-11T20:26:37.399Z,9.02
2022-10-11T20:29:03.812Z,10.25
2022-10-11T20:31:33.072Z,10.50
2022-10-11T20:34:02.195Z,9.68
2022-10-11T20:36:30.151Z,11.13
2022-10-11T20:38:58.074Z,10.73
2022-10-11T20:41:33.477Z,23.83
2022-10-11T20:44:01.423Z,37.10
2022-10-11T20:46:33.009Z,11.52
2022-10-11T20:49:02.526Z,10.13
2022-10-11T20:51:30.868Z,8.70
2022-10-11T20:53:58.861Z,9.25
2022-10-11T20:56:25.729Z,8.50
2022-10-11T20:58:54.961Z,10.05
2022-10-11T21:01:43.063Z,9.50
2022-10-11T21:04:17.506Z,8.77
2022-10-11T21:06:44.259Z,8.50
2022-10-11T21:09:14.051Z,8.38
2022-10-11T21:11:42.886Z,12.23
2022-10-11T21:14:09.380Z,8.52
2022-10-11T21:16:36.515Z,8.63
2022-10-11T21:19:03.914Z,8.40
2022-10-11T21:21:31.161Z,8.27
2022-10-11T21:24:00.611Z,8.82
2022-10-11T21:26:27.638Z,8.93
2022-10-11T21:28:54.418Z,8.63
2022-10-11T21:31:22.466Z,8.18
2022-10-11T21:33:49.145Z,12.65
2022-10-11T21:36:20.727Z,8.77
2022-10-11T21:38:48.019Z,8.60
2022-10-11T21:41:25.444Z,8.60
2022-10-11T21:43:52.779Z,9.07
2022-10-11T21:46:20.602Z,8.80
2022-10-11T21:48:48.068Z,8.25
2022-10-11T21:51:17.429Z,8.20
2022-10-11T21:53:44.024Z,8.57
2022-10-11T21:56:10.761Z,8.63
2022-10-11T21:58:37.427Z,9.30
2022-10-11T22:01:04.148Z,8.07
2022-10-11T22:03:30.751Z,8.05
2022-10-11T22:05:58.695Z,8.95
2022-10-11T22:08:25.115Z,9.45
2022-10-11T22:10:58.838Z,10.82
2022-10-11T22:13:26.983Z,8.60
2022-10-11T22:15:53.615Z,8.75
2022-10-11T22:18:20.457Z,7.85
2022-10-11T22:20:47.102Z,8.23
2022-10-11T22:23:13.837Z,7.93
2022-10-11T22:25:43.218Z,8.05
2022-10-11T22:28:09.841Z,8.77
2022-10-11T22:30:36.343Z,8.07
2022-10-11T22:33:02.995Z,8.98
2022-10-11T22:35:31.395Z,9.68
2022-10-11T22:38:00.071Z,7.88
2022-10-11T22:40:26.714Z,7.95
2022-10-11T22:42:53.459Z,8.02
2022-10-11T22:45:19.944Z,8.02
2022-10-11T22:47:46.462Z,8.18
2022-10-11T22:50:12.889Z,8.00
2022-10-11T22:52:39.359Z,8.63
2022-10-11T22:55:06.481Z,8.02
2022-10-11T22:57:32.949Z,8.43
2022-10-11T22:59:59.443Z,8.85
2022-10-11T23:02:26.013Z,7.88
2022-10-11T23:04:54.177Z,7.82
2022-10-11T23:07:22.252Z,7.72
2022-10-11T23:09:48.749Z,7.45
2022-10-11T23:12:15.221Z,7.28
2022-10-11T23:14:41.688Z,7.85
2022-10-11T23:17:08.124Z,8.23
2022-10-11T23:19:34.527Z,7.93
2022-10-11T23:22:00.978Z,7.40
2022-10-11T23:24:27.424Z,8.18
2022-10-11T23:26:53.907Z,8.05
2022-10-11T23:29:20.597Z,7.50
2022-10-11T23:31:47.209Z,7.50
2022-10-11T23:34:14.259Z,7.40
2022-10-11T23:36:40.878Z,6.97
2022-10-11T23:39:07.411Z,7.70
2022-10-11T23:41:34.010Z,8.52
2022-10-11T23:44:00.450Z,8.80
2022-10-11T23:46:27.289Z,7.75
2022-10-11T23:48:53.785Z,7.70
2022-10-11T23:51:20.304Z,7.80
2022-10-11T23:53:46.853Z,7.53
2022-10-11T23:56:13.688Z,7.53
2022-10-11T23:58:40.347Z,7.70
